Time;durP1;ratioP1;P1;durP2;ratioP2;P2;SDS_P1;SDS_P2;PMS_P1;PMS_P2;Temp;Humidity;BMP_temperature;BMP_pressure;BME280_temperature;BME280_humidity;BME280_pressure;Samples;Min_cycle;Max_cycle;Signal;HPM_P1;HPM_P2
2023/09/29 00:00:18;;;;;;;7.75;3.35;;;20.30;62.20;;;;;;5044848;28;20240;-29
2023/09/29 00:02:50;;;;;;;5.72;3.28;;;20.30;62.20;;;;;;5043404;28;20722;-29
2023/09/29 00:05:18;;;;;;;6.80;3.38;;;20.30;62.20;;;;;;5045260;28;20231;-29
2023/09/29 00:07:46;;;;;;;6.72;3.45;;;20.30;62.20;;;;;;5045304;28;20328;-29
2023/09/29 00:10:16;;;;;;;6.65;3.05;;;20.30;62.20;;;;;;5045097;28;20228;-29
2023/09/29 00:12:45;;;;;;;6.47;2.97;;;20.30;62.20;;;;;;5043813;28;20212;-29
2023/09/29 00:15:17;;;;;;;8.07;3.42;;;20.30;62.20;;;;;;5044834;28;20652;-29
2023/09/29 00:17:45;;;;;;;6.53;3.15;;;20.30;62.10;;;;;;5043487;28;20851;-29
2023/09/29 00:22:43;;;;;;;6.68;3.22;;;20.30;62.10;;;;;;5044964;28;20212;-29
2023/09/29 00:25:10;;;;;;;5.65;3.13;;;20.30;62.10;;;;;;5044734;28;20236;-29
2023/09/29 00:27:42;;;;;;;8.45;2.72;;;20.30;62.10;;;;;;5044491;28;20196;-29
2023/09/29 00:30:10;;;;;;;5.07;2.90;;;20.30;62.20;;;;;;5045090;28;20297;-29
2023/09/29 00:32:54;;;;;;;9.30;2.90;;;20.30;62.10;;;;;;5044842;28;20287;-29
2023/09/29 00:35:30;;;;;;;8.43;3.00;;;20.40;62.20;;;;;;5045284;28;20270;-29
2023/09/29 00:38:01;;;;;;;6.32;2.95;;;20.30;62.10;;;;;;5043101;28;20250;-29
2023/09/29 00:40:29;;;;;;;10.23;3.10;;;20.30;62.10;;;;;;5043179;28;20628;-29
2023/09/29 00:43:02;;;;;;;7.07;2.90;;;20.40;62.20;;;;;;5044783;28;20595;-29
2023/09/29 00:45:29;;;;;;;7.53;2.70;;;20.30;62.10;;;;;;5044910;28;20228;-29
2023/09/29 00:48:10;;;;;;;8.02;3.10;;;20.30;62.10;;;;;;5043516;28;20655;-29
2023/09/29 00:50:38;;;;;;;8.27;3.38;;;20.30;62.10;;;;;;5045042;28;20357;-29
2023/09/29 00:53:13;;;;;;;7.63;3.08;;;20.30;62.10;;;;;;5044613;28;20277;-29
2023/09/29 00:55:44;;;;;;;12.55;2.88;;;20.30;62.10;;;;;;5042782;28;20203;-29
2023/09/29 00:58:15;;;;;;;7.68;3.03;;;20.30;62.10;;;;;;5042398;28;20201;-29
2023/09/29 01:00:45;;;;;;;12.18;3.40;;;20.30;62.10;;;;;;5044299;28;20236;-29
2023/09/29 01:03:14;;;;;;;5.65;2.85;;;20.30;62.10;;;;;;5044485;28;20216;-29
2023/09/29 01:05:49;;;;;;;7.15;2.85;;;20.30;62.10;;;;;;5030203;28;20216;-29
2023/09/29 01:08:22;;;;;;;8.98;3.00;;;20.30;62.10;;;;;;5045176;28;20294;-29
2023/09/29 01:10:50;;;;;;;9.32;2.80;;;20.30;62.10;;;;;;5047830;28;20200;-29
2023/09/29 01:13:17;;;;;;;7.18;2.70;;;20.30;62.10;;;;;;5047749;28;20236;-29
2023/09/29 01:15:47;;;;;;;5.65;2.30;;;20.30;62.10;;;;;;5037616;28;21233;-29
2023/09/29 01:18:20;;;;;;;6.15;2.33;;;20.30;62.10;;;;;;5043709;28;20287;-29
2023/09/29 01:20:49;;;;;;;5.65;2.38;;;20.30;62.10;;;;;;5046191;28;20307;-29
2023/09/29 01:23:16;;;;;;;5.88;2.42;;;20.30;62.10;;;;;;5046033;28;20228;-29
2023/09/29 01:25:48;;;;;;;7.53;2.90;;;20.30;62.10;;;;;;5046805;28;20199;-29
2023/09/29 01:28:18;;;;;;;6.03;2.80;;;20.30;62.10;;;;;;5046461;28;20212;-29
2023/09/29 01:30:53;;;;;;;6.07;2.63;;;20.30;62.10;;;;;;5046542;28;20206;-29
2023/09/29 01:33:23;;;;;;;8.00;3.03;;;20.30;62.10;;;;;;5047645;28;20204;-29
2023/09/29 01:35:53;;;;;;;6.60;2.63;;;20.30;62.10;;;;;;5047574;28;20235;-29
2023/09/29 01:38:20;;;;;;;6.43;2.63;;;20.40;62.10;;;;;;5046175;28;20208;-29
2023/09/29 01:40:48;;;;;;;6.05;2.35;;;20.40;62.20;;;;;;5046191;28;20291;-29
2023/09/29 01:43:18;;;;;;;5.60;2.70;;;20.40;62.10;;;;;;5046637;28;20623;-29
2023/09/29 01:45:46;;;;;;;7.28;2.65;;;20.40;62.20;;;;;;5047681;28;20224;-30
2023/09/29 01:48:13;;;;;;;5.43;2.70;;;20.40;62.10;;;;;;5047475;28;20258;-29
2023/09/29 01:50:42;;;;;;;7.30;2.58;;;20.40;62.10;;;;;;5029503;28;20196;-29
2023/09/29 01:53:10;;;;;;;5.45;2.78;;;20.40;62.20;;;;;;5047199;28;20215;-29
2023/09/29 01:55:39;;;;;;;4.22;2.40;;;20.40;62.20;;;;;;5045804;28;20239;-29
2023/09/29 01:58:07;;;;;;;6.82;2.75;;;20.40;62.20;;;;;;5047232;28;20211;-29
2023/09/29 02:00:38;;;;;;;7.40;2.78;;;20.40;62.20;;;;;;5047047;28;20236;-29
2023/09/29 02:03:08;;;;;;;6.53;2.70;;;20.40;62.20;;;;;;5046227;28;20394;-29
2023/09/29 02:05:36;;;;;;;7.38;2.80;;;20.40;62.20;;;;;;5046755;28;20741;-29
2023/09/29 02:08:06;;;;;;;5.25;2.60;;;20.50;62.30;;;;;;5047161;28;20311;-29
2023/09/29 02:10:36;;;;;;;7.65;2.88;;;20.50;62.30;;;;;;5047082;28;20197;-29
2023/09/29 02:13:04;;;;;;;6.88;2.58;;;20.50;62.30;;;;;;5047167;28;20250;-29
2023/09/29 02:15:35;;;;;;;6.78;2.63;;;20.50;62.30;;;;;;5046763;28;20582;-29
2023/09/29 02:18:09;;;;;;;7.20;2.83;;;20.50;62.30;;;;;;5046756;28;20449;-29
2023/09/29 02:20:46;;;;;;;6.45;3.10;;;20.50;62.30;;;;;;5046722;28;20211;-29
2023/09/29 02:23:16;;;;;;;6.50;2.35;;;20.50;62.40;;;;;;5045343;28;20204;-29
2023/09/29 02:25:44;;;;;;;8.32;3.10;;;20.50;62.40;;;;;;5045303;28;20278;-29
2023/09/29 02:28:11;;;;;;;10.70;2.58;;;20.50;62.40;;;;;;5046558;28;20219;-29
2023/09/29 02:30:40;;;;;;;6.55;2.78;;;20.50;62.40;;;;;;5046461;28;20647;-30
2023/09/29 02:33:08;;;;;;;7.43;3.15;;;20.60;62.50;;;;;;5046566;28;20309;-29
2023/09/29 02:35:37;;;;;;;9.38;2.95;;;20.60;62.50;;;;;;5046637;28;20733;-29
2023/09/29 02:38:05;;;;;;;6.82;2.85;;;20.60;62.50;;;;;;5045325;28;20244;-29
2023/09/29 02:40:34;;;;;;;6.82;2.60;;;20.60;62.50;;;;;;5047038;28;20678;-29
2023/09/29 02:43:02;;;;;;;6.65;2.90;;;20.60;62.50;;;;;;5044693;28;20291;-28
2023/09/29 02:45:31;;;;;;;7.75;2.60;;;20.70;62.60;;;;;;5046080;28;20220;-29
2023/09/29 02:48:02;;;;;;;4.50;2.10;;;20.60;62.50;;;;;;5046223;28;20200;-29
2023/09/29 02:50:35;;;;;;;5.63;2.08;;;20.60;62.50;;;;;;5046039;28;20692;-29
2023/09/29 02:53:08;;;;;;;6.63;2.58;;;20.70;62.60;;;;;;5046109;28;20291;-28
2023/09/29 02:55:35;;;;;;;7.50;2.45;;;20.70;62.70;;;;;;5044369;28;20201;-28
2023/09/29 02:58:03;;;;;;;4.60;2.30;;;20.70;62.70;;;;;;5045840;28;20235;-29
2023/09/29 03:00:31;;;;;;;5.72;2.70;;;20.70;62.70;;;;;;5045677;28;20653;-28
2023/09/29 03:02:59;;;;;;;5.90;2.75;;;20.80;62.70;;;;;;5028097;28;20683;-28
2023/09/29 03:05:32;;;;;;;8.75;2.60;;;20.80;62.70;;;;;;5045764;28;20236;-28
2023/09/29 03:07:59;;;;;;;4.32;2.60;;;20.80;62.70;;;;;;5044447;28;20753;-28
2023/09/29 03:10:28;;;;;;;5.32;2.42;;;20.80;62.80;;;;;;5045621;28;20207;-28
2023/09/29 03:12:58;;;;;;;7.20;2.75;;;20.80;62.80;;;;;;5044411;28;20227;-28
2023/09/29 03:15:25;;;;;;;5.88;2.40;;;20.90;62.80;;;;;;5045988;28;20224;-28
2023/09/29 03:17:55;;;;;;;3.55;2.33;;;20.80;62.80;;;;;;5044640;28;20219;-28
2023/09/29 03:20:28;;;;;;;4.05;2.17;;;20.90;62.80;;;;;;5045501;28;20290;-28
2023/09/29 03:22:58;;;;;;;6.35;2.50;;;20.90;62.90;;;;;;5046023;28;20212;-28
2023/09/29 03:25:28;;;;;;;4.65;2.45;;;20.90;62.90;;;;;;5043849;28;20781;-28
2023/09/29 03:27:55;;;;;;;8.38;2.28;;;21.00;63.00;;;;;;5045467;28;20701;-28
2023/09/29 03:30:25;;;;;;;3.72;2.25;;;21.00;63.00;;;;;;5045588;28;20223;-28
2023/09/29 03:32:53;;;;;;;5.97;2.28;;;21.00;63.00;;;;;;5045425;28;20208;-28
2023/09/29 03:35:21;;;;;;;5.13;2.40;;;21.00;63.00;;;;;;5043821;28;20625;-28
2023/09/29 03:37:50;;;;;;;3.88;2.00;;;21.10;63.80;;;;;;5043832;28;20243;-28
2023/09/29 03:40:20;;;;;;;5.95;2.47;;;21.10;63.10;;;;;;5045284;28;20215;-29
2023/09/29 03:42:47;;;;;;;6.45;2.47;;;21.10;63.10;;;;;;5043587;28;20675;-28
2023/09/29 03:45:16;;;;;;;5.78;2.33;;;21.10;63.10;;;;;;5043597;28;20307;-29
2023/09/29 03:47:46;;;;;;;4.50;2.20;;;21.20;63.20;;;;;;5044886;28;20295;-28
2023/09/29 03:50:16;;;;;;;3.63;2.20;;;21.20;63.20;;;;;;5045358;28;20677;-28
2023/09/29 03:52:46;;;;;;;3.92;2.30;;;21.20;63.20;;;;;;5045547;28;20293;-28
2023/09/29 03:55:14;;;;;;;4.85;2.20;;;21.20;63.20;;;;;;5045186;28;20200;-28
2023/09/29 03:57:42;;;;;;;4.93;2.30;;;21.20;63.20;;;;;;5043496;28;20271;-28
2023/09/29 04:00:12;;;;;;;5.22;2.80;;;21.30;63.30;;;;;;5044731;28;20236;-29
2023/09/29 04:02:43;;;;;;;5.15;2.20;;;21.30;63.30;;;;;;5027693;28;20526;-28
2023/09/29 04:05:11;;;;;;;6.97;2.35;;;21.30;63.30;;;;;;5043393;28;20757;-28
2023/09/29 04:07:39;;;;;;;5.88;2.47;;;21.30;63.30;;;;;;5044983;28;20571;-28
2023/09/29 04:10:11;;;;;;;5.28;2.30;;;21.30;63.40;;;;;;5043515;28;20200;-28
2023/09/29 04:12:44;;;;;;;6.10;2.47;;;21.40;63.40;;;;;;5044776;28;20212;-28
2023/09/29 04:15:17;;;;;;;5.72;2.47;;;21.40;63.40;;;;;;5044991;28;20216;-28
2023/09/29 04:17:47;;;;;;;4.55;2.47;;;21.40;63.40;;;;;;5043403;28;20285;-28
2023/09/29 04:20:15;;;;;;;3.47;2.50;;;21.40;63.50;;;;;;5043191;28;20618;-28
2023/09/29 04:22:43;;;;;;;6.55;2.28;;;21.50;63.50;;;;;;5044530;28;20227;-28
2023/09/29 04:25:10;;;;;;;3.67;2.30;;;21.50;63.50;;;;;;5043181;28;20311;-29
2023/09/29 04:27:40;;;;;;;4.43;2.30;;;21.50;63.50;;;;;;5043573;28;20200;-28
2023/09/29 04:30:12;;;;;;;3.30;2.40;;;21.50;63.50;;;;;;5045291;28;20200;-28
2023/09/29 04:32:42;;;;;;;4.13;1.90;;;21.50;63.60;;;;;;5043538;28;20224;-28
2023/09/29 04:35:11;;;;;;;3.90;2.58;;;21.60;63.60;;;;;;5044784;28;20204;-28
2023/09/29 04:37:41;;;;;;;4.45;2.10;;;21.60;63.60;;;;;;5043075;28;20667;-28
2023/09/29 04:40:11;;;;;;;3.10;2.40;;;21.60;63.60;;;;;;5044754;28;20671;-28
2023/09/29 04:42:43;;;;;;;3.65;2.10;;;21.60;63.70;;;;;;5044626;28;20211;-28
2023/09/29 04:45:10;;;;;;;4.78;2.80;;;21.60;63.70;;;;;;5048267;28;20216;-28
2023/09/29 04:47:38;;;;;;;5.13;2.25;;;21.60;63.80;;;;;;5048740;28;20198;-28
2023/09/29 04:50:10;;;;;;;5.38;2.22;;;21.60;63.70;;;;;;5048112;28;20282;-28
2023/09/29 04:52:37;;;;;;;7.60;2.45;;;21.60;63.70;;;;;;5048121;28;21021;-28
2023/09/29 04:55:05;;;;;;;5.82;2.47;;;21.70;63.80;;;;;;5048219;28;20622;-28
2023/09/29 04:57:32;;;;;;;4.85;2.30;;;21.70;63.80;;;;;;5048250;28;20216;-28
2023/09/29 05:00:03;;;;;;;2.50;2.00;;;21.70;63.80;;;;;;5046606;28;20211;-29
2023/09/29 05:02:31;;;;;;;7.38;2.13;;;21.70;63.80;;;;;;5046823;28;20315;-28
2023/09/29 05:04:58;;;;;;;5.78;2.30;;;21.70;63.80;;;;;;5046709;28;20217;-28
2023/09/29 05:07:25;;;;;;;7.80;2.30;;;21.80;63.90;;;;;;5047218;28;20210;-28
2023/09/29 05:09:52;;;;;;;5.28;2.63;;;21.80;63.90;;;;;;5047051;28;20204;-28
2023/09/29 05:12:20;;;;;;;4.20;2.28;;;21.80;63.90;;;;;;5048015;28;20204;-28
2023/09/29 05:14:51;;;;;;;2.65;2.20;;;21.80;63.90;;;;;;5046281;28;20202;-28
2023/09/29 05:17:19;;;;;;;5.43;2.20;;;21.80;63.90;;;;;;5046648;28;20711;-28
2023/09/29 05:19:46;;;;;;;5.00;2.22;;;21.80;63.90;;;;;;5048001;28;20204;-29
2023/09/29 05:22:20;;;;;;;4.43;2.53;;;21.80;63.90;;;;;;5030477;28;20232;-28
2023/09/29 05:24:47;;;;;;;5.35;2.25;;;21.80;63.90;;;;;;5047896;28;20228;-28
2023/09/29 05:27:15;;;;;;;4.85;1.95;;;21.80;63.90;;;;;;5047851;28;20207;-28
2023/09/29 05:29:44;;;;;;;4.35;2.08;;;21.80;63.90;;;;;;5047587;28;20752;-28
2023/09/29 05:32:14;;;;;;;5.07;2.30;;;21.80;64.00;;;;;;5047511;28;20200;-28
2023/09/29 05:34:45;;;;;;;6.45;2.25;;;21.90;64.00;;;;;;5047362;28;20216;-28
2023/09/29 05:37:14;;;;;;;4.80;2.03;;;21.90;64.10;;;;;;5046151;28;20207;-28
2023/09/29 05:39:42;;;;;;;4.45;2.33;;;21.90;64.00;;;;;;5046101;28;20288;-28
2023/09/29 05:42:11;;;;;;;3.80;2.30;;;21.90;64.00;;;;;;5047498;28;20188;-28
2023/09/29 05:44:38;;;;;;;7.57;2.25;;;21.90;64.10;;;;;;5046026;28;20196;-28
2023/09/29 05:47:05;;;;;;;5.82;2.38;;;21.90;64.00;;;;;;5047126;28;20207;-29
2023/09/29 05:49:33;;;;;;;9.35;2.30;;;21.90;64.00;;;;;;5029369;28;20717;-28
2023/09/29 05:52:00;;;;;;;4.53;2.38;;;21.90;64.00;;;;;;5047486;28;20283;-28
2023/09/29 05:54:29;;;;;;;5.47;2.35;;;21.90;64.00;;;;;;5046894;28;20640;-28
2023/09/29 05:56:56;;;;;;;3.88;2.50;;;21.90;64.00;;;;;;5047000;28;20203;-28
2023/09/29 05:59:24;;;;;;;5.45;2.03;;;21.90;64.00;;;;;;5047092;28;20240;-28
2023/09/29 06:01:51;;;;;;;6.22;2.10;;;21.90;64.00;;;;;;5047092;28;20240;-28
2023/09/29 06:04:37;;;;;;;4.43;1.80;;;21.90;64.10;;;;;;5045559;28;20287;-28
2023/09/29 06:07:04;;;;;;;6.28;2.40;;;21.90;64.00;;;;;;5045301;28;20212;-28
2023/09/29 06:09:31;;;;;;;7.72;2.72;;;21.90;64.00;;;;;;5046791;28;20457;-28
2023/09/29 06:12:03;;;;;;;5.93;2.55;;;21.90;64.10;;;;;;5045277;28;20220;-29
2023/09/29 06:14:33;;;;;;;6.60;2.30;;;21.90;64.10;;;;;;5046816;28;20211;-28
2023/09/29 06:17:01;;;;;;;7.85;2.67;;;21.90;64.10;;;;;;5047079;28;20196;-28
2023/09/29 06:19:28;;;;;;;4.35;2.42;;;21.90;64.10;;;;;;5047320;28;20200;-28
2023/09/29 06:21:58;;;;;;;5.90;2.13;;;21.90;64.10;;;;;;5045161;28;20752;-28
2023/09/29 06:24:27;;;;;;;5.18;2.28;;;21.90;64.40;;;;;;5046433;28;20324;-28
2023/09/29 06:26:54;;;;;;;6.82;2.40;;;21.90;64.30;;;;;;5044886;28;20232;-28
2023/09/29 06:29:28;;;;;;;9.93;2.70;;;21.90;64.20;;;;;;5046111;28;20211;-28
2023/09/29 06:31:56;;;;;;;11.00;2.70;;;21.90;64.20;;;;;;5046007;28;20781;-28
2023/09/29 06:34:23;;;;;;;3.58;2.30;;;22.00;64.40;;;;;;5046060;28;20224;-28
2023/09/29 06:36:50;;;;;;;4.13;2.22;;;21.90;64.20;;;;;;5044845;28;20200;-28
2023/09/29 06:39:20;;;;;;;4.57;2.20;;;22.00;64.30;;;;;;5046232;28;20392;-28
2023/09/29 06:41:47;;;;;;;5.93;2.80;;;22.00;64.30;;;;;;5046367;28;20224;-28
2023/09/29 06:44:19;;;;;;;6.60;2.72;;;22.00;64.40;;;;;;5044634;28;20211;-28
2023/09/29 06:46:46;;;;;;;5.93;2.42;;;22.00;64.40;;;;;;5045696;28;20220;-28
2023/09/29 06:49:18;;;;;;;3.58;2.00;;;22.00;64.40;;;;;;5045940;28;20214;-28
2023/09/29 06:51:48;;;;;;;6.70;2.33;;;22.00;64.40;;;;;;5044567;28;20726;-29
2023/09/29 06:54:16;;;;;;;6.75;2.28;;;22.00;64.40;;;;;;5045929;28;20231;-31
2023/09/29 06:56:48;;;;;;;4.55;2.22;;;22.10;64.50;;;;;;5045275;28;20204;-32
2023/09/29 06:59:17;;;;;;;6.05;2.25;;;22.10;64.50;;;;;;5045743;28;20215;-32
2023/09/29 07:01:46;;;;;;;4.60;2.55;;;22.10;64.40;;;;;;5044069;28;20633;-32
2023/09/29 07:04:17;;;;;;;4.70;2.28;;;22.10;64.50;;;;;;5028266;28;20253;-32
2023/09/29 07:06:47;;;;;;;5.75;2.70;;;22.20;64.50;;;;;;5044750;28;20231;-32
2023/09/29 07:09:17;;;;;;;3.95;2.60;;;22.20;64.50;;;;;;5045728;28;20622;-32
2023/09/29 07:11:44;;;;;;;5.18;2.55;;;22.20;64.50;;;;;;5044119;28;20201;-29
2023/09/29 07:14:12;;;;;;;4.38;2.10;;;22.20;64.50;;;;;;5045779;28;20211;-29
2023/09/29 07:16:42;;;;;;;8.10;2.60;;;22.30;64.50;;;;;;5044519;28;20269;-29
2023/09/29 07:19:13;;;;;;;7.60;2.50;;;22.30;64.50;;;;;;5045875;28;20192;-29
2023/09/29 07:21:41;;;;;;;5.75;2.40;;;22.30;64.50;;;;;;5043850;28;20338;-29
2023/09/29 07:24:08;;;;;;;8.23;2.50;;;22.30;64.50;;;;;;5043902;28;20228;-29
2023/09/29 07:26:38;;;;;;;6.82;2.53;;;22.30;64.50;;;;;;5043645;28;20220;-32
2023/09/29 07:29:08;;;;;;;4.45;2.30;;;22.30;64.50;;;;;;5045547;28;20203;-32
2023/09/29 07:31:36;;;;;;;5.55;2.35;;;22.30;64.50;;;;;;5045343;28;20325;-32
2023/09/29 07:34:03;;;;;;;4.18;2.63;;;22.30;64.60;;;;;;5044114;28;20220;-32
2023/09/29 07:36:33;;;;;;;5.22;2.60;;;22.40;64.60;;;;;;5045659;28;20227;-32
2023/09/29 07:39:00;;;;;;;5.45;2.92;;;22.40;64.60;;;;;;5045186;28;20227;-32
2023/09/29 07:41:28;;;;;;;6.68;2.42;;;22.40;64.60;;;;;;5045035;28;20298;-32
2023/09/29 07:43:57;;;;;;;6.57;2.60;;;22.40;65.40;;;;;;5043555;28;20204;-32
2023/09/29 07:46:24;;;;;;;4.22;2.20;;;22.40;64.70;;;;;;5045048;28;20224;-32
2023/09/29 07:48:54;;;;;;;4.30;2.55;;;22.40;64.60;;;;;;5044877;28;20206;-32
2023/09/29 07:51:25;;;;;;;5.72;3.00;;;22.40;64.50;;;;;;5044892;28;20297;-32
2023/09/29 07:53:54;;;;;;;4.55;2.30;;;22.50;64.60;;;;;;5043407;28;20196;-32
2023/09/29 07:56:21;;;;;;;6.70;2.78;;;22.50;64.60;;;;;;5044770;28;20208;-29
2023/09/29 07:58:48;;;;;;;8.73;2.88;;;22.50;64.50;;;;;;5044742;28;20290;-29
2023/09/29 08:01:16;;;;;;;5.70;2.75;;;22.50;64.60;;;;;;5043008;28;20330;-29
2023/09/29 08:03:43;;;;;;;5.60;2.63;;;22.50;64.50;;;;;;5044972;28;20246;-29
2023/09/29 08:06:11;;;;;;;10.05;3.10;;;22.50;64.60;;;;;;5043383;28;20212;-29
2023/09/29 08:08:38;;;;;;;9.27;3.50;;;22.50;64.60;;;;;;5045423;28;20192;-29
2023/09/29 08:11:05;;;;;;;10.43;3.25;;;22.50;64.60;;;;;;5045400;28;20207;-28
2023/09/29 08:13:32;;;;;;;7.10;3.50;;;22.60;64.60;;;;;;5045092;28;20338;-28
2023/09/29 08:16:02;;;;;;;8.70;3.70;;;22.60;64.60;;;;;;5043302;28;20733;-29
2023/09/29 08:18:32;;;;;;;9.70;3.40;;;22.60;64.60;;;;;;5048251;28;20666;-29
2023/09/29 08:20:59;;;;;;;7.85;3.47;;;22.60;64.60;;;;;;5047383;28;20204;-29
2023/09/29 08:23:30;;;;;;;7.50;3.15;;;22.60;64.60;;;;;;5048879;28;20234;-29
2023/09/29 08:26:00;;;;;;;8.55;3.55;;;22.60;64.50;;;;;;5047079;28;20579;-29
2023/09/29 08:28:27;;;;;;;8.90;3.47;;;22.60;64.60;;;;;;5047113;28;20490;-28
2023/09/29 08:30:56;;;;;;;8.93;3.85;;;22.60;64.60;;;;;;5048253;28;20200;-29
2023/09/29 08:33:27;;;;;;;8.80;4.05;;;22.60;64.60;;;;;;5046796;28;20250;-29
2023/09/29 08:35:58;;;;;;;6.85;3.65;;;22.60;64.60;;;;;;5048318;28;20208;-29
2023/09/29 08:38:26;;;;;;;6.93;2.88;;;22.70;64.60;;;;;;5030507;28;20204;-29
2023/09/29 08:40:55;;;;;;;8.45;3.55;;;22.70;64.60;;;;;;5048855;28;20228;-29
2023/09/29 08:43:28;;;;;;;8.75;3.90;;;22.70;64.60;;;;;;5047116;28;20307;-30
2023/09/29 08:45:58;;;;;;;18.70;4.18;;;22.70;64.60;;;;;;5048408;28;20716;-30
2023/09/29 08:48:35;;;;;;;23.67;6.13;;;22.70;64.60;;;;;;5047186;28;20196;-28
2023/09/29 08:51:04;;;;;;;10.18;3.55;;;22.70;64.70;;;;;;5046945;28;20191;-28
2023/09/29 08:53:32;;;;;;;7.72;3.70;;;22.80;64.80;;;;;;5046659;28;20216;-27
2023/09/29 08:56:11;;;;;;;12.48;4.20;;;22.80;64.80;;;;;;5046610;28;20196;-28
2023/09/29 08:58:43;;;;;;;11.68;3.90;;;22.80;64.70;;;;;;5048017;28;20204;-30
2023/09/29 09:01:10;;;;;;;11.60;3.42;;;22.90;64.70;;;;;;5048254;28;20354;-30
2023/09/29 09:03:41;;;;;;;11.05;4.22;;;22.90;64.70;;;;;;5046915;28;20208;-30
2023/09/29 09:06:23;;;;;;;11.75;3.63;;;22.90;64.70;;;;;;5046888;28;20220;-30
2023/09/29 09:08:57;;;;;;;8.73;3.53;;;22.90;64.70;;;;;;5046490;28;20600;-30
2023/09/29 09:11:24;;;;;;;8.98;3.78;;;23.00;64.80;;;;;;5046128;28;20293;-30
2023/09/29 09:14:07;;;;;;;11.70;3.95;;;23.00;64.80;;;;;;5046327;28;20208;-30
2023/09/29 09:16:38;;;;;;;13.57;3.90;;;23.00;64.70;;;;;;5047915;28;20712;-30
2023/09/29 09:19:21;;;;;;;11.38;3.97;;;23.10;64.80;;;;;;5047561;28;20509;-28
2023/09/29 09:21:51;;;;;;;13.38;4.00;;;23.10;64.80;;;;;;5047637;28;20216;-28
2023/09/29 09:24:26;;;;;;;8.18;3.85;;;23.10;64.80;;;;;;5046388;28;20657;-28
2023/09/29 09:27:01;;;;;;;12.80;4.28;;;23.20;64.90;;;;;;5047437;28;20693;-28
2023/09/29 09:29:29;;;;;;;9.48;3.88;;;23.20;64.80;;;;;;5045105;28;20188;-28
2023/09/29 09:31:59;;;;;;;9.48;3.63;;;23.20;64.80;;;;;;5047434;28;20408;-27
2023/09/29 09:34:33;;;;;;;8.85;3.67;;;23.30;64.90;;;;;;5047511;28;20717;-28
2023/09/29 09:37:03;;;;;;;10.35;3.50;;;23.30;64.80;;;;;;5046024;28;20200;-28
2023/09/29 09:39:33;;;;;;;9.40;3.25;;;23.30;64.70;;;;;;5047300;28;20411;-30
2023/09/29 09:42:05;;;;;;;10.68;3.60;;;23.40;64.70;;;;;;5047203;28;20623;-31
2023/09/29 09:44:34;;;;;;;9.35;3.25;;;23.40;64.60;;;;;;5047136;28;20212;-28
2023/09/29 09:47:04;;;;;;;5.45;2.95;;;23.40;64.60;;;;;;5029251;28;20227;-28
2023/09/29 09:49:46;;;;;;;6.32;2.67;;;23.40;64.70;;;;;;5045584;28;20200;-28
2023/09/29 09:52:38;;;;;;;10.77;2.95;;;23.50;64.80;;;;;;5045555;28;20196;-27
2023/09/29 09:55:15;;;;;;;9.35;3.25;;;23.50;64.70;;;;;;5047122;28;20693;-27
2023/09/29 09:57:45;;;;;;;8.27;3.10;;;23.50;64.70;;;;;;5046795;28;20200;-28
2023/09/29 10:00:13;;;;;;;9.98;3.25;;;23.50;64.80;;;;;;5046971;28;20285;-28
2023/09/29 10:02:47;;;;;;;8.68;3.28;;;23.60;64.80;;;;;;5047588;28;20262;-28
2023/09/29 10:05:24;;;;;;;12.77;3.63;;;23.60;64.70;;;;;;5046870;28;20788;-28
2023/09/29 10:08:05;;;;;;;10.38;3.67;;;23.60;64.80;;;;;;5046877;28;20228;-28
2023/09/29 10:10:39;;;;;;;7.65;3.28;;;23.60;64.90;;;;;;5046563;28;20621;-29
2023/09/29 10:13:15;;;;;;;7.80;3.10;;;23.60;65.00;;;;;;5046704;28;20212;-28
2023/09/29 10:15:54;;;;;;;5.97;2.70;;;23.60;65.00;;;;;;5046511;28;20694;-28
2023/09/29 10:18:22;;;;;;;10.82;3.15;;;23.60;65.00;;;;;;5046436;28;20299;-29
2023/09/29 10:21:00;;;;;;;8.55;2.60;;;23.60;65.00;;;;;;5028272;28;20422;-29
2023/09/29 10:23:28;;;;;;;10.00;3.42;;;23.60;65.00;;;;;;5044547;28;20543;-28
2023/09/29 10:26:02;;;;;;;6.75;3.05;;;23.50;65.10;;;;;;5046189;28;20197;-28
2023/09/29 10:28:36;;;;;;;9.27;3.25;;;23.50;65.20;;;;;;5046459;28;20212;-28
2023/09/29 10:31:13;;;;;;;5.78;2.63;;;23.50;65.30;;;;;;5044960;28;20215;-28
2023/09/29 10:33:55;;;;;;;6.47;2.47;;;23.60;65.40;;;;;;5046238;28;20670;-28
2023/09/29 10:36:25;;;;;;;5.45;2.40;;;23.50;65.30;;;;;;5046691;28;20211;-28
2023/09/29 10:38:57;;;;;;;5.18;2.30;;;23.50;65.20;;;;;;5045525;28;20228;-28
2023/09/29 10:41:28;;;;;;;5.68;2.33;;;23.50;65.30;;;;;;5028009;28;20208;-28
2023/09/29 10:44:06;;;;;;;10.48;2.70;;;23.50;65.20;;;;;;5044550;28;20196;-28
2023/09/29 10:46:33;;;;;;;6.75;2.88;;;23.50;65.20;;;;;;5045770;28;20218;-28
2023/09/29 10:49:03;;;;;;;7.38;2.78;;;23.50;65.20;;;;;;5045864;28;20590;-28
2023/09/29 10:51:33;;;;;;;6.55;2.78;;;23.50;65.20;;;;;;5044523;28;20291;-28
2023/09/29 10:54:02;;;;;;;6.38;2.50;;;23.50;65.30;;;;;;5045851;28;20261;-28
2023/09/29 10:56:30;;;;;;;11.55;2.88;;;23.50;65.30;;;;;;5045936;28;20346;-28
2023/09/29 10:58:58;;;;;;;7.50;2.20;;;23.50;65.30;;;;;;5045200;28;20244;-28
2023/09/29 11:01:32;;;;;;;8.15;2.88;;;23.50;65.20;;;;;;5043981;28;20597;-27
2023/09/29 11:04:02;;;;;;;6.68;2.33;;;23.50;65.40;;;;;;5045516;28;20254;-28
2023/09/29 11:06:29;;;;;;;7.13;2.67;;;23.50;65.50;;;;;;5044075;28;20223;-28
2023/09/29 11:08:58;;;;;;;5.45;2.30;;;23.50;65.50;;;;;;5044242;28;20208;-28
2023/09/29 11:11:32;;;;;;;5.90;2.35;;;23.50;65.40;;;;;;5045212;28;20313;-28
2023/09/29 11:14:00;;;;;;;6.70;2.45;;;23.50;65.40;;;;;;5045713;28;20628;-28
2023/09/29 11:16:31;;;;;;;5.90;2.20;;;23.50;65.40;;;;;;5044177;28;20705;-27
2023/09/29 11:19:14;;;;;;;10.00;2.63;;;23.50;65.20;;;;;;5045223;28;20292;-28
2023/09/29 11:21:41;;;;;;;6.30;2.38;;;23.40;65.30;;;;;;5045137;28;20726;-28
2023/09/29 11:24:10;;;;;;;4.40;2.05;;;23.40;65.30;;;;;;5043818;28;20279;-28
2023/09/29 11:26:48;;;;;;;8.00;2.30;;;23.40;65.40;;;;;;5043809;28;20212;-28
2023/09/29 11:29:23;;;;;;;5.95;2.33;;;23.40;65.70;;;;;;5043766;28;20206;-27
2023/09/29 11:31:55;;;;;;;6.35;2.55;;;23.40;65.40;;;;;;5045390;28;20223;-27
2023/09/29 11:34:23;;;;;;;5.90;2.75;;;23.40;65.40;;;;;;5043151;28;20666;-28
2023/09/29 11:36:51;;;;;;;6.10;2.60;;;23.40;65.40;;;;;;5043463;28;20212;-28
2023/09/29 11:39:21;;;;;;;8.13;2.85;;;23.40;65.60;;;;;;5045304;28;20196;-28
2023/09/29 11:41:51;;;;;;;4.82;2.53;;;23.40;65.60;;;;;;5044871;28;20315;-28
2023/09/29 11:44:18;;;;;;;8.85;2.90;;;23.40;65.50;;;;;;5045410;28;20211;-28
2023/09/29 11:46:46;;;;;;;6.68;2.85;;;23.40;65.40;;;;;;5043330;28;20232;-28
2023/09/29 11:49:13;;;;;;;8.73;2.72;;;23.40;65.40;;;;;;5045171;28;20192;-28
2023/09/29 11:51:43;;;;;;;9.05;3.20;;;23.40;65.40;;;;;;5045162;28;20295;-28
2023/09/29 11:54:10;;;;;;;7.63;2.95;;;23.30;65.40;;;;;;5044989;28;20745;-28
2023/09/29 11:56:40;;;;;;;8.32;3.50;;;23.30;65.40;;;;;;5027189;28;20232;-28
2023/09/29 11:59:08;;;;;;;8.88;3.78;;;23.30;65.40;;;;;;5043135;28;20327;-28
2023/09/29 12:01:37;;;;;;;10.55;3.63;;;23.30;65.70;;;;;;5044745;28;20228;-28
2023/09/29 12:04:06;;;;;;;11.40;4.18;;;23.30;65.70;;;;;;5043541;28;20725;-28
2023/09/29 12:06:33;;;;;;;11.23;3.70;;;23.30;65.60;;;;;;5044739;28;20228;-28
2023/09/29 12:09:01;;;;;;;9.15;3.83;;;23.20;65.60;;;;;;5043175;28;20258;-28
2023/09/29 12:11:28;;;;;;;8.55;3.92;;;23.20;65.60;;;;;;5043396;28;20733;-28
2023/09/29 12:13:55;;;;;;;9.82;4.30;;;23.20;65.80;;;;;;5044273;28;20263;-27
2023/09/29 12:16:23;;;;;;;10.48;4.25;;;23.20;65.80;;;;;;5044604;28;20207;-28
2023/09/29 12:18:50;;;;;;;9.75;3.63;;;23.20;65.90;;;;;;5043527;28;20200;-28
2023/09/29 12:21:20;;;;;;;7.85;3.83;;;23.20;66.10;;;;;;5043183;28;20708;-28
2023/09/29 12:23:50;;;;;;;7.10;3.63;;;23.10;66.00;;;;;;5044699;28;20219;-27
2023/09/29 12:26:17;;;;;;;6.40;2.88;;;23.10;66.20;;;;;;5044718;28;20204;-27
2023/09/29 12:28:47;;;;;;;6.18;2.67;;;23.10;66.10;;;;;;5045244;28;20714;-27
2023/09/29 12:31:18;;;;;;;6.85;2.60;;;23.10;66.30;;;;;;5027210;28;20198;-27
2023/09/29 12:33:46;;;;;;;8.98;2.97;;;23.10;66.20;;;;;;5043486;28;20216;-27
2023/09/29 12:36:15;;;;;;;7.13;2.88;;;23.10;66.20;;;;;;5043142;28;20197;-28
2023/09/29 12:38:45;;;;;;;5.20;2.58;;;23.00;66.20;;;;;;5044885;28;20201;-28
2023/09/29 12:41:15;;;;;;;5.03;2.15;;;23.00;66.20;;;;;;5044773;28;20204;-27
2023/09/29 12:43:43;;;;;;;3.97;1.83;;;23.00;66.30;;;;;;5044912;28;20216;-27
2023/09/29 12:46:13;;;;;;;7.03;1.90;;;22.90;66.00;;;;;;5043147;28;20718;-27
2023/09/29 12:48:40;;;;;;;3.55;1.50;;;22.90;66.20;;;;;;5044328;28;20443;-27
2023/09/29 12:51:12;;;;;;;2.47;1.42;;;22.80;65.90;;;;;;5043075;28;20633;-27
2023/09/29 12:53:52;;;;;;;2.78;1.13;;;22.70;66.00;;;;;;5042971;28;20274;-27
2023/09/29 12:56:24;;;;;;;3.00;0.93;;;22.60;66.00;;;;;;5044732;28;20742;-27
2023/09/29 12:58:52;;;;;;;2.35;1.05;;;22.50;66.00;;;;;;5043132;28;20973;-27
2023/09/29 13:01:23;;;;;;;2.72;1.15;;;22.40;66.00;;;;;;5042457;28;20236;-27